Time;durP1;ratioP1;P1;durP2;ratioP2;P2;SDS_P1;SDS_P2;PMS_P1;PMS_P2;Temp;Humidity;BMP_temperature;BMP_pressure;BME280_temperature;BME280_humidity;BME280_pressure;Samples;Min_cycle;Max_cycle;Signal;HPM_P1;HPM_P2
2022/08/30 00:02:34;;;;;;;7.47;4.93;;;14.90;1.00;;;;;;4820743;29;20571;-79
2022/08/30 00:05:01;;;;;;;7.90;4.82;;;14.90;1.00;;;;;;4831278;29;20026;-79
2022/08/30 00:07:26;;;;;;;6.18;4.43;;;14.90;1.00;;;;;;4838844;29;20075;-80
2022/08/30 00:09:52;;;;;;;7.95;5.18;;;14.90;1.00;;;;;;4851649;29;20026;-79
2022/08/30 00:12:19;;;;;;;5.95;4.60;;;14.90;1.00;;;;;;4851253;29;20026;-79
2022/08/30 00:14:45;;;;;;;5.85;4.53;;;14.80;1.00;;;;;;4840012;29;20050;-79
2022/08/30 00:17:11;;;;;;;7.97;4.60;;;14.90;1.00;;;;;;4845638;29;20038;-79
2022/08/30 00:19:37;;;;;;;9.38;4.85;;;14.80;1.00;;;;;;4845265;29;20040;-79
2022/08/30 00:22:03;;;;;;;6.60;4.80;;;14.80;1.00;;;;;;4840300;29;20018;-79
2022/08/30 00:24:29;;;;;;;6.43;4.38;;;14.80;1.00;;;;;;4840725;29;20034;-79
2022/08/30 00:26:55;;;;;;;8.88;4.90;;;14.80;1.00;;;;;;4835506;29;20031;-79
2022/08/30 00:29:21;;;;;;;7.38;5.10;;;14.90;1.00;;;;;;4833410;29;20027;-79
2022/08/30 00:31:47;;;;;;;7.60;4.93;;;14.90;1.00;;;;;;4860744;23;20030;-74
2022/08/30 00:34:13;;;;;;;6.65;4.55;;;14.90;1.00;;;;;;4863415;29;20030;-76
2022/08/30 00:36:38;;;;;;;6.85;4.95;;;14.90;1.00;;;;;;4863425;29;20032;-77
2022/08/30 00:39:05;;;;;;;7.93;5.00;;;15.00;1.00;;;;;;4863649;29;20025;-77
2022/08/30 00:41:30;;;;;;;5.43;4.50;;;15.00;1.00;;;;;;4863663;29;20022;-77
2022/08/30 00:43:56;;;;;;;5.78;4.65;;;15.00;1.00;;;;;;4863452;29;20025;-77
2022/08/30 00:46:22;;;;;;;6.43;4.60;;;15.00;1.00;;;;;;4863388;29;20033;-76
2022/08/30 00:48:48;;;;;;;7.03;4.28;;;15.00;1.00;;;;;;4863403;29;20053;-76
2022/08/30 00:51:15;;;;;;;9.30;4.55;;;14.90;1.00;;;;;;4863218;29;20385;-77
2022/08/30 00:53:46;;;;;;;8.73;4.70;;;14.80;1.00;;;;;;4862950;29;20624;-76
2022/08/30 00:56:12;;;;;;;7.13;3.83;;;14.80;1.00;;;;;;4863276;29;20059;-77
2022/08/30 00:58:44;;;;;;;8.30;4.50;;;14.70;1.00;;;;;;4861719;29;20021;-77
2022/08/30 01:01:10;;;;;;;8.50;4.47;;;14.70;1.00;;;;;;4863063;29;20662;-76
2022/08/30 01:03:37;;;;;;;5.57;4.18;;;14.80;1.00;;;;;;4863021;29;20544;-76
2022/08/30 01:06:04;;;;;;;6.63;4.40;;;14.60;1.00;;;;;;4862815;29;20068;-76
2022/08/30 01:08:30;;;;;;;7.30;4.50;;;14.50;1.00;;;;;;4877879;29;20036;-76
2022/08/30 01:10:56;;;;;;;9.30;4.28;;;14.40;1.00;;;;;;4881539;29;20023;-77
2022/08/30 01:13:25;;;;;;;10.60;4.10;;;14.40;1.00;;;;;;4881251;29;20388;-76
2022/08/30 01:15:52;;;;;;;7.72;3.90;;;14.40;1.00;;;;;;4880299;29;20029;-76
2022/08/30 01:18:18;;;;;;;6.10;4.13;;;14.30;1.00;;;;;;4881649;29;20044;-77
2022/08/30 01:20:44;;;;;;;6.50;4.15;;;14.30;1.00;;;;;;4881091;29;20036;-76
2022/08/30 01:23:13;;;;;;;6.75;3.97;;;14.30;1.00;;;;;;4881026;29;20025;-76
2022/08/30 01:25:41;;;;;;;6.32;4.20;;;14.10;2.40;;;;;;4881082;29;20021;-77
2022/08/30 01:28:11;;;;;;;6.07;4.38;;;14.10;10.30;;;;;;4877025;29;20030;-76
2022/08/30 01:30:41;;;;;;;;;;;14.20;21.40;;;;;;4862998;29;20457;-77
2022/08/30 01:33:07;;;;;;;;;;;14.10;22.60;;;;;;4862585;29;19920;-77
2022/08/30 01:35:48;;;;;;;7.60;4.22;;;14.20;14.00;;;;;;4862419;29;19908;-77
2022/08/30 01:38:37;;;;;;;6.32;4.28;;;14.20;15.90;;;;;;5174355;27;20105;-76
2022/08/30 01:41:31;;;;;;;7.32;4.53;;;14.20;14.20;;;;;;5152928;27;20031;-75
2022/08/30 01:43:59;;;;;;;9.25;4.80;;;14.10;11.50;;;;;;5149346;27;20038;-76
2022/08/30 01:46:30;;;;;;;7.00;4.47;;;14.10;29.20;;;;;;5152756;27;20035;-76
2022/08/30 01:48:56;;;;;;;8.07;4.40;;;14.20;44.00;;;;;;5152643;27;20054;-76
2022/08/30 01:51:26;;;;;;;7.20;4.53;;;14.20;40.60;;;;;;5152433;27;20023;-76
2022/08/30 01:53:52;;;;;;;7.60;4.43;;;14.20;54.10;;;;;;5152557;27;20110;-76
2022/08/30 01:56:19;;;;;;;12.07;4.68;;;14.30;56.00;;;;;;5152537;27;20043;-77
2022/08/30 01:58:45;;;;;;;7.45;4.13;;;14.40;35.80;;;;;;5136573;27;20076;-76
2022/08/30 02:01:13;;;;;;;6.47;3.92;;;14.40;34.60;;;;;;5131934;28;20637;-76
2022/08/30 02:03:41;;;;;;;8.70;3.97;;;14.40;15.00;;;;;;5131598;28;20148;-75
2022/08/30 02:06:10;;;;;;;9.00;3.88;;;14.50;20.60;;;;;;5131430;28;20023;-76
2022/08/30 02:08:38;;;;;;;6.45;4.25;;;14.60;15.20;;;;;;5131498;28;20402;-76
2022/08/30 02:11:05;;;;;;;7.30;3.92;;;14.50;7.40;;;;;;5131876;28;20011;-76
2022/08/30 02:13:31;;;;;;;6.57;3.90;;;14.70;6.70;;;;;;5131644;28;20022;-76
2022/08/30 02:15:57;;;;;;;5.90;3.88;;;14.70;1.00;;;;;;5131393;28;20020;-76
2022/08/30 02:18:24;;;;;;;6.25;3.90;;;14.80;1.00;;;;;;5131548;28;20020;-76
2022/08/30 02:21:31;;;;;;;6.45;3.85;;;14.90;1.00;;;;;;5139499;27;20465;-76
2022/08/30 02:23:57;;;;;;;4.03;3.50;;;14.90;1.00;;;;;;5152065;27;20100;-76
2022/08/30 02:26:22;;;;;;;6.90;3.95;;;14.90;1.00;;;;;;5151655;27;20023;-75
2022/08/30 02:28:51;;;;;;;5.10;3.58;;;14.90;1.00;;;;;;5151590;27;20111;-77
2022/08/30 02:31:19;;;;;;;7.90;3.17;;;14.90;1.00;;;;;;5150795;27;20034;-76
2022/08/30 02:33:44;;;;;;;8.15;3.78;;;14.90;1.00;;;;;;5115268;28;20073;-75
2022/08/30 02:36:10;;;;;;;6.18;3.40;;;14.90;1.00;;;;;;5130643;28;20461;-75
2022/08/30 02:38:36;;;;;;;6.72;3.47;;;14.80;1.00;;;;;;5131067;28;20094;-75
2022/08/30 02:41:01;;;;;;;10.32;3.17;;;14.80;1.00;;;;;;5131217;28;20022;-76
2022/08/30 02:43:27;;;;;;;5.82;3.22;;;14.70;1.00;;;;;;5130778;28;20449;-76
2022/08/30 02:45:52;;;;;;;4.85;3.35;;;14.70;1.00;;;;;;5130705;28;20027;-76
2022/08/30 02:48:18;;;;;;;6.43;3.30;;;14.80;1.00;;;;;;5124967;28;20763;-75
2022/08/30 02:50:47;;;;;;;5.88;3.38;;;14.60;1.00;;;;;;5116856;28;20103;-76
2022/08/30 02:53:13;;;;;;;5.78;3.47;;;14.70;1.00;;;;;;5115344;28;20073;-75
2022/08/30 02:55:39;;;;;;;4.00;3.60;;;14.60;1.00;;;;;;5104766;28;20027;-75
2022/08/30 02:58:05;;;;;;;6.32;3.88;;;14.50;1.00;;;;;;5116807;28;20487;-75
2022/08/30 03:00:31;;;;;;;3.50;3.20;;;14.60;1.00;;;;;;5116824;28;20107;-76
2022/08/30 03:02:57;;;;;;;7.22;3.45;;;14.50;1.00;;;;;;5116829;28;20424;-75
2022/08/30 03:05:23;;;;;;;6.15;4.03;;;14.50;1.00;;;;;;5115891;28;20518;-75
2022/08/30 03:07:49;;;;;;;7.35;4.00;;;14.50;1.00;;;;;;5096103;28;20382;-75
2022/08/30 03:10:15;;;;;;;6.07;4.28;;;14.50;1.00;;;;;;5096252;28;20016;-75
2022/08/30 03:12:41;;;;;;;7.43;3.35;;;14.50;1.00;;;;;;5096170;28;20052;-76
2022/08/30 03:15:29;;;;;;;5.75;3.60;;;14.40;1.00;;;;;;5095982;28;20024;-75
2022/08/30 03:17:55;;;;;;;8.40;3.78;;;14.40;1.00;;;;;;5095988;28;20107;-76
2022/08/30 03:20:23;;;;;;;5.78;3.53;;;14.30;1.00;;;;;;5096203;28;20047;-76
2022/08/30 03:22:48;;;;;;;5.68;3.97;;;14.20;1.00;;;;;;5096279;28;20024;-76
2022/08/30 03:25:15;;;;;;;6.85;4.43;;;14.30;1.00;;;;;;5096325;28;20024;-76
2022/08/30 03:27:40;;;;;;;5.57;3.97;;;14.20;1.00;;;;;;5095982;28;20024;-76
2022/08/30 03:30:07;;;;;;;6.60;4.07;;;14.10;5.50;;;;;;5096085;28;20107;-77
2022/08/30 03:32:33;;;;;;;5.75;4.25;;;14.10;1.00;;;;;;5096220;28;20020;-76
2022/08/30 03:34:58;;;;;;;5.38;4.60;;;14.10;38.30;;;;;;5095920;28;20107;-77
2022/08/30 03:37:26;;;;;;;5.57;4.10;;;14.10;17.20;;;;;;5096001;28;20135;-76
2022/08/30 03:39:52;;;;;;;6.55;3.83;;;14.00;4.40;;;;;;5096201;28;20020;-76
2022/08/30 03:42:18;;;;;;;5.50;4.10;;;14.00;37.80;;;;;;5106584;28;20035;-76
2022/08/30 03:44:44;;;;;;;5.82;4.00;;;14.00;27.80;;;;;;5116549;28;20020;-76
2022/08/30 03:47:10;;;;;;;7.00;4.05;;;13.90;24.80;;;;;;5116050;28;20031;-76
2022/08/30 03:49:35;;;;;;;6.15;4.03;;;13.90;32.10;;;;;;5116207;28;20024;-76
2022/08/30 03:52:01;;;;;;;6.30;4.28;;;13.80;26.60;;;;;;5116271;28;20536;-76
2022/08/30 03:54:27;;;;;;;6.78;4.00;;;13.70;30.30;;;;;;5116368;28;20024;-77
2022/08/30 03:56:52;;;;;;;8.80;4.32;;;13.60;43.90;;;;;;5116031;28;20028;-76
2022/08/30 03:59:18;;;;;;;5.22;4.13;;;13.40;28.00;;;;;;5115584;28;20047;-76
2022/08/30 04:01:44;;;;;;;7.35;4.50;;;13.40;69.40;;;;;;5115280;28;20382;-76
2022/08/30 04:04:10;;;;;;;7.20;4.32;;;13.40;74.40;;;;;;5116025;28;20020;-76
2022/08/30 04:06:36;;;;;;;4.38;3.92;;;13.30;99.90;;;;;;5116153;28;20028;-76
2022/08/30 04:09:02;;;;;;;6.85;4.28;;;13.20;99.40;;;;;;5115865;28;20020;-76
2022/08/30 04:11:28;;;;;;;5.00;3.70;;;13.20;99.90;;;;;;5115756;28;20524;-76
2022/08/30 04:13:55;;;;;;;6.40;4.50;;;13.10;99.90;;;;;;5115964;28;20024;-76
2022/08/30 04:16:20;;;;;;;5.07;4.20;;;13.20;99.90;;;;;;5096865;28;20019;-77
2022/08/30 04:18:46;;;;;;;6.80;4.45;;;13.10;99.90;;;;;;5115255;28;20092;-76
2022/08/30 04:21:12;;;;;;;6.93;4.47;;;13.20;99.90;;;;;;5115427;28;20047;-76
2022/08/30 04:23:38;;;;;;;4.32;3.90;;;13.10;99.90;;;;;;5115308;28;20043;-76
2022/08/30 04:26:03;;;;;;;6.57;4.38;;;13.00;99.90;;;;;;5115067;28;20051;-76
2022/08/30 04:28:29;;;;;;;9.07;4.78;;;13.00;99.90;;;;;;5115183;28;20024;-76
2022/08/30 04:30:55;;;;;;;7.13;4.20;;;12.90;99.90;;;;;;5115081;28;20502;-76
2022/08/30 04:33:21;;;;;;;6.50;4.50;;;12.90;99.90;;;;;;5115210;28;20026;-76
2022/08/30 04:35:48;;;;;;;8.60;4.75;;;12.90;99.90;;;;;;5115282;28;20504;-76
2022/08/30 04:38:16;;;;;;;9.13;4.68;;;12.80;99.90;;;;;;5114800;28;20048;-76
2022/08/30 04:40:47;;;;;;;6.43;4.00;;;12.70;99.90;;;;;;5114844;28;20041;-76
2022/08/30 04:43:13;;;;;;;7.53;4.53;;;12.80;99.90;;;;;;5115427;28;20031;-76
2022/08/30 04:45:40;;;;;;;5.57;4.85;;;12.70;99.90;;;;;;5115168;28;20070;-76
2022/08/30 04:48:06;;;;;;;6.25;4.47;;;12.70;99.90;;;;;;5110360;28;20059;-76
2022/08/30 04:50:32;;;;;;;5.95;4.45;;;12.50;99.90;;;;;;5107513;28;20355;-77
2022/08/30 04:52:58;;;;;;;6.40;4.75;;;12.60;99.90;;;;;;5104918;28;20049;-76
2022/08/30 04:55:25;;;;;;;6.13;3.92;;;12.60;99.90;;;;;;5094439;28;20024;-76
2022/08/30 04:57:51;;;;;;;5.30;4.38;;;12.50;99.90;;;;;;5095406;28;20908;-77
2022/08/30 05:00:19;;;;;;;7.25;4.63;;;12.60;99.90;;;;;;5114908;28;20103;-77
2022/08/30 05:02:46;;;;;;;8.35;5.20;;;12.60;99.90;;;;;;5115283;28;20088;-76
2022/08/30 05:07:56;;;;;;;5.72;3.47;;;12.70;99.90;;;;;;5115561;28;20049;-76
2022/08/30 05:10:22;;;;;;;6.35;3.75;;;12.80;99.90;;;;;;5114886;28;20019;-76
2022/08/30 05:12:48;;;;;;;5.47;3.85;;;13.00;99.90;;;;;;5108881;28;20024;-75
2022/08/30 05:15:13;;;;;;;4.85;3.83;;;13.20;99.90;;;;;;5094943;28;20103;-76
2022/08/30 05:17:39;;;;;;;6.80;3.78;;;13.20;99.90;;;;;;5113721;28;20038;-77
2022/08/30 05:20:07;;;;;;;6.63;3.72;;;13.20;99.90;;;;;;5100864;28;20020;-76
2022/08/30 05:22:35;;;;;;;5.68;4.63;;;13.10;99.90;;;;;;5112342;28;20012;-77
2022/08/30 05:25:01;;;;;;;5.93;4.30;;;13.20;99.90;;;;;;5112476;28;20012;-77
2022/08/30 05:27:27;;;;;;;6.00;3.83;;;13.40;99.90;;;;;;5096479;28;20045;-77
2022/08/30 05:29:54;;;;;;;3.80;3.40;;;13.40;99.90;;;;;;5111257;28;20042;-77
2022/08/30 05:32:19;;;;;;;6.07;4.10;;;13.70;96.80;;;;;;5106355;28;20028;-76
2022/08/30 05:34:45;;;;;;;5.70;4.13;;;13.50;16.40;;;;;;5114284;28;20019;-76
2022/08/30 05:37:10;;;;;;;4.90;3.90;;;13.50;1.00;;;;;;5110245;28;20787;-77
2022/08/30 05:39:36;;;;;;;4.40;4.00;;;13.50;1.00;;;;;;5110034;28;20479;-77
2022/08/30 05:42:01;;;;;;;5.32;4.25;;;13.60;1.00;;;;;;5102904;28;20016;-76
2022/08/30 05:44:27;;;;;;;4.43;3.60;;;13.60;1.00;;;;;;5113036;28;20050;-76
2022/08/30 05:46:52;;;;;;;4.47;3.63;;;13.50;1.00;;;;;;5103613;28;20103;-77
2022/08/30 05:49:18;;;;;;;4.40;3.92;;;13.60;1.00;;;;;;5114405;28;20043;-76
2022/08/30 05:51:44;;;;;;;7.10;3.83;;;13.60;1.00;;;;;;5113351;28;20028;-77
2022/08/30 05:54:11;;;;;;;5.35;4.05;;;13.60;1.00;;;;;;5112082;28;20385;-77
2022/08/30 05:56:38;;;;;;;6.28;4.47;;;13.80;1.00;;;;;;5094168;28;20035;-77
2022/08/30 05:59:05;;;;;;;8.10;4.90;;;13.80;1.00;;;;;;5112436;28;20019;-76
2022/08/30 06:01:35;;;;;;;5.20;4.60;;;13.80;1.00;;;;;;5114513;28;20047;-77
2022/08/30 06:04:03;;;;;;;4.93;4.07;;;13.80;1.00;;;;;;5113848;28;20036;-76
2022/08/30 06:06:30;;;;;;;5.43;4.55;;;14.00;1.00;;;;;;5105522;28;20045;-76
2022/08/30 06:08:55;;;;;;;8.40;4.57;;;14.00;1.00;;;;;;5101725;28;20023;-76
2022/08/30 06:11:23;;;;;;;7.20;5.00;;;14.10;1.00;;;;;;5106468;28;20038;-76
2022/08/30 06:13:51;;;;;;;5.22;4.72;;;14.20;1.00;;;;;;5111041;28;20030;-76
2022/08/30 06:16:20;;;;;;;7.47;4.30;;;14.20;1.00;;;;;;5103711;28;20040;-77
2022/08/30 06:18:46;;;;;;;9.02;5.22;;;14.30;1.00;;;;;;5104758;28;20403;-76
2022/08/30 06:21:21;;;;;;;8.60;5.07;;;14.40;1.00;;;;;;5103436;28;20028;-77
2022/08/30 06:23:47;;;;;;;7.97;5.20;;;14.50;1.00;;;;;;5109471;28;20027;-76
2022/08/30 06:26:13;;;;;;;6.72;4.78;;;14.60;1.00;;;;;;5107346;28;20031;-77
2022/08/30 06:28:38;;;;;;;8.35;5.40;;;14.70;1.00;;;;;;5113203;28;20024;-77
2022/08/30 06:31:08;;;;;;;5.68;4.63;;;14.80;1.00;;;;;;5114245;28;20051;-77
2022/08/30 06:33:35;;;;;;;6.63;4.88;;;15.00;1.00;;;;;;5105235;28;20024;-77
2022/08/30 06:36:08;;;;;;;6.70;5.20;;;15.00;1.00;;;;;;5111167;28;20051;-78
2022/08/30 06:38:35;;;;;;;7.13;4.63;;;15.10;1.00;;;;;;5108752;28;20433;-77
2022/08/30 06:41:08;;;;;;;6.43;4.97;;;15.30;99.90;;;;;;5113990;28;20531;-76
2022/08/30 06:43:34;;;;;;;8.07;5.45;;;15.40;99.90;;;;;;5114438;28;20100;-76
2022/08/30 06:46:04;;;;;;;6.07;4.78;;;17.00;99.90;;;;;;5113614;28;20650;-76
2022/08/30 06:48:30;;;;;;;;;;;22.70;99.90;;;;;;5106425;28;20016;-77
2022/08/30 06:50:55;;;;;;;4.35;3.70;;;25.60;99.90;;;;;;5108886;28;19912;-77
2022/08/30 06:53:22;;;;;;;6.15;3.88;;;26.80;99.90;;;;;;5111886;28;20024;-76
2022/08/30 06:56:03;;;;;;;5.25;3.97;;;28.70;99.90;;;;;;5101713;28;20024;-77
2022/08/30 06:58:30;;;;;;;6.22;3.88;;;30.60;99.90;;;;;;5109710;28;20377;-77
2022/08/30 07:00:56;;;;;;;5.22;3.33;;;31.10;99.90;;;;;;5104684;28;20023;-77
2022/08/30 07:03:22;;;;;;;3.83;3.33;;;31.10;99.90;;;;;;5100643;28;20031;-77
2022/08/30 07:05:48;;;;;;;4.97;3.67;;;30.90;99.90;;;;;;5119283;28;20750;-77
2022/08/30 07:08:15;;;;;;;4.70;3.45;;;31.50;99.90;;;;;;5109347;28;20065;-75
2022/08/30 07:10:41;;;;;;;3.75;3.03;;;33.70;99.90;;;;;;5115693;28;20026;-77
2022/08/30 07:13:08;;;;;;;3.75;2.55;;;34.80;99.90;;;;;;5108243;28;20445;-77
2022/08/30 07:15:34;;;;;;;6.75;3.08;;;32.40;99.90;;;;;;5108696;28;20022;-77
2022/08/30 07:20:44;;;;;;;3.05;2.72;;;32.90;99.90;;;;;;5117196;28;20031;-77
2022/08/30 07:23:10;;;;;;;6.68;2.83;;;31.60;99.90;;;;;;5116990;28;20407;-77
2022/08/30 07:25:38;;;;;;;3.58;2.80;;;32.20;99.90;;;;;;5116628;28;20100;-78
2022/08/30 07:28:05;;;;;;;4.85;2.70;;;33.30;99.90;;;;;;5114832;28;20031;-77
2022/08/30 07:30:31;;;;;;;4.35;2.47;;;32.00;99.90;;;;;;5116523;28;20030;-78
2022/08/30 07:32:57;;;;;;;4.50;2.47;;;31.20;99.90;;;;;;5096468;28;20024;-77
2022/08/30 07:35:22;;;;;;;3.60;2.50;;;33.90;99.90;;;;;;5096629;28;20028;-77
2022/08/30 07:37:49;;;;;;;2.60;2.30;;;34.90;99.90;;;;;;5106135;28;20128;-77
2022/08/30 07:40:14;;;;;;;4.88;2.45;;;35.10;99.90;;;;;;5120765;28;20076;-75
2022/08/30 07:42:40;;;;;;;3.30;2.33;;;34.90;99.90;;;;;;5116732;28;20415;-78
2022/08/30 07:45:07;;;;;;;2.30;2.10;;;32.50;99.90;;;;;;5110823;28;20027;-77
2022/08/30 07:47:33;;;;;;;4.80;2.58;;;34.10;99.90;;;;;;5116896;28;20020;-77
2022/08/30 07:49:59;;;;;;;3.15;2.60;;;31.20;99.90;;;;;;5098385;28;20026;-77
2022/08/30 07:52:26;;;;;;;3.13;2.45;;;29.80;99.90;;;;;;5111779;28;20030;-77
2022/08/30 07:54:55;;;;;;;3.92;2.20;;;32.30;99.90;;;;;;5097637;28;20038;-78
2022/08/30 07:57:20;;;;;;;2.38;2.00;;;29.60;99.90;;;;;;5102563;28;20027;-78
2022/08/30 07:59:46;;;;;;;2.30;1.90;;;32.30;99.90;;;;;;5104492;28;20102;-79
2022/08/30 08:02:12;;;;;;;4.25;1.55;;;28.60;99.90;;;;;;5117959;28;20020;-77
2022/08/30 08:04:37;;;;;;;2.20;1.40;;;27.00;99.90;;;;;;5117501;28;20047;-77
2022/08/30 08:07:03;;;;;;;3.25;1.70;;;31.40;99.90;;;;;;5108197;28;20072;-77
2022/08/30 08:09:28;;;;;;;2.75;1.50;;;31.90;99.90;;;;;;5115963;28;20023;-76
2022/08/30 08:11:54;;;;;;;2.50;1.73;;;33.70;99.90;;;;;;5096962;28;20409;-77
2022/08/30 08:14:22;;;;;;;2.63;1.60;;;32.20;99.90;;;;;;5099487;28;20106;-74
2022/08/30 08:16:47;;;;;;;2.67;1.50;;;33.60;99.90;;;;;;5113430;28;20031;-75
2022/08/30 08:19:13;;;;;;;3.67;1.80;;;34.40;99.90;;;;;;5100220;28;20013;-73
2022/08/30 08:21:39;;;;;;;1.73;1.40;;;32.10;99.90;;;;;;5093033;28;20539;-75
2022/08/30 08:24:05;;;;;;;1.88;1.10;;;32.20;99.90;;;;;;5093083;28;20055;-76
2022/08/30 08:26:35;;;;;;;2.10;1.42;;;32.50;99.40;;;;;;5093171;28;20101;-76
2022/08/30 08:29:01;;;;;;;2.83;1.67;;;33.70;99.50;;;;;;5093213;28;20039;-76
2022/08/30 08:31:27;;;;;;;3.13;1.52;;;34.60;98.90;;;;;;5108842;28;20024;-76
2022/08/30 08:33:54;;;;;;;3.17;1.38;;;34.60;97.10;;;;;;5113495;28;20034;-75
2022/08/30 08:36:20;;;;;;;2.17;1.80;;;35.90;97.10;;;;;;5082768;28;20410;-75
2022/08/30 08:38:46;;;;;;;2.70;1.63;;;36.30;95.70;;;;;;5093023;28;20026;-76
2022/08/30 08:41:31;;;;;;;2.55;1.50;;;33.90;95.50;;;;;;5107713;28;20517;-75
2022/08/30 08:43:57;;;;;;;2.10;1.27;;;35.50;94.90;;;;;;5113196;28;20050;-75
2022/08/30 08:46:32;;;;;;;1.90;1.40;;;33.90;93.70;;;;;;5112409;28;20114;-75
2022/08/30 08:49:02;;;;;;;3.13;1.55;;;34.40;94.20;;;;;;5113234;28;20024;-75
2022/08/30 08:54:26;;;;;;;2.30;1.53;;;34.50;92.20;;;;;;5112233;28;20023;-75
2022/08/30 08:56:53;;;;;;;2.55;1.27;;;33.90;91.30;;;;;;5113128;28;20028;-76
2022/08/30 08:59:18;;;;;;;2.92;1.40;;;35.40;91.00;;;;;;5113307;28;20024;-75
2022/08/30 09:01:46;;;;;;;3.55;1.30;;;35.00;89.70;;;;;;5112868;28;20097;-75
2022/08/30 09:04:18;;;;;;;4.13;1.35;;;35.10;87.70;;;;;;5113149;28;20024;-76
2022/08/30 09:06:57;;;;;;;1.33;1.15;;;34.60;87.00;;;;;;5112771;28;20080;-75
2022/08/30 09:09:28;;;;;;;2.22;1.05;;;35.00;88.10;;;;;;5112946;28;20066;-75
2022/08/30 09:11:54;;;;;;;2.55;1.15;;;31.00;85.10;;;;;;5112665;28;20485;-75
2022/08/30 09:14:25;;;;;;;2.15;1.50;;;30.60;90.20;;;;;;5113018;28;20026;-75
2022/08/30 09:17:03;;;;;;;2.88;1.75;;;31.00;92.50;;;;;;5113507;28;20106;-77
2022/08/30 09:19:34;;;;;;;2.20;1.40;;;30.70;94.80;;;;;;5112953;28;20019;-75
2022/08/30 09:22:01;;;;;;;2.97;1.25;;;28.40;92.40;;;;;;5113003;28;20054;-76
2022/08/30 09:24:42;;;;;;;3.45;1.80;;;32.20;93.80;;;;;;5113074;28;20027;-76
2022/08/30 09:27:29;;;;;;;1.95;1.27;;;32.60;91.30;;;;;;5092599;28;20028;-75
2022/08/30 09:29:58;;;;;;;2.80;1.70;;;30.30;90.80;;;;;;5093192;28;20073;-76
2022/08/30 09:32:26;;;;;;;3.20;1.55;;;32.70;91.90;;;;;;5107027;28;20050;-77
2022/08/30 09:34:52;;;;;;;2.67;1.50;;;31.90;90.10;;;;;;5109670;28;20101;-76
2022/08/30 09:37:26;;;;;;;2.78;1.75;;;28.00;91.40;;;;;;5101790;28;20139;-75
2022/08/30 09:39:52;;;;;;;3.10;1.70;;;29.20;94.00;;;;;;5109215;28;20111;-75
2022/08/30 09:42:24;;;;;;;2.22;1.52;;;30.20;92.80;;;;;;5092326;28;20048;-76
2022/08/30 09:44:52;;;;;;;5.13;1.88;;;28.60;92.20;;;;;;5092494;28;20020;-75
2022/08/30 09:47:27;;;;;;;2.47;1.33;;;32.20;93.70;;;;;;5092736;28;20528;-76
2022/08/30 09:50:22;;;;;;;2.53;1.30;;;35.10;91.30;;;;;;5093068;28;20608;-76
2022/08/30 09:52:59;;;;;;;1.48;1.23;;;32.00;89.50;;;;;;5079501;28;20028;-77
2022/08/30 09:55:33;;;;;;;4.07;1.20;;;32.30;91.00;;;;;;5113304;28;20024;-76
2022/08/30 09:58:34;;;;;;;2.92;1.00;;;31.30;89.80;;;;;;5113558;28;20026;-77
2022/08/30 10:01:10;;;;;;;2.30;1.63;;;28.60;90.10;;;;;;5085664;28;20039;-76
2022/08/30 10:03:43;;;;;;;3.08;1.65;;;26.40;93.40;;;;;;5105283;28;20664;-76
2022/08/30 10:06:21;;;;;;;2.13;1.45;;;25.40;93.70;;;;;;5107066;28;20012;-75
2022/08/30 10:09:00;;;;;;;1.38;0.88;;;26.00;96.00;;;;;;5116900;28;20031;-75
2022/08/30 10:11:52;;;;;;;2.17;1.33;;;25.90;96.20;;;;;;5117060;28;20024;-76
2022/08/30 10:14:20;;;;;;;2.05;1.20;;;25.60;96.80;;;;;;5117356;28;20039;-75
2022/08/30 10:17:33;;;;;;;1.88;1.25;;;26.30;96.30;;;;;;5097901;28;20028;-76
2022/08/30 10:20:16;;;;;;;3.08;1.48;;;25.60;96.60;;;;;;5111755;28;20019;-76
2022/08/30 10:23:08;;;;;;;1.80;1.10;;;24.10;98.00;;;;;;5102152;28;20035;-75
2022/08/30 10:25:49;;;;;;;2.08;1.25;;;27.00;95.80;;;;;;5090844;28;20036;-75
2022/08/30 10:28:33;;;;;;;3.42;1.13;;;25.00;97.30;;;;;;5096537;28;20012;-75
2022/08/30 10:31:06;;;;;;;2.42;1.20;;;26.80;96.50;;;;;;5096707;28;20024;-75
2022/08/30 10:33:37;;;;;;;2.70;0.90;;;29.00;96.50;;;;;;5078550;28;20020;-76
2022/08/30 10:36:08;;;;;;;3.00;1.10;;;28.40;95.60;;;;;;5096393;28;20673;-75
2022/08/30 10:38:45;;;;;;;1.65;1.10;;;26.00;95.20;;;;;;5096525;28;20067;-75
2022/08/30 10:41:29;;;;;;;2.75;1.20;;;31.00;95.70;;;;;;5095974;28;20030;-75
2022/08/30 10:44:25;;;;;;;3.13;1.20;;;27.20;94.20;;;;;;5096367;28;20020;-75
2022/08/30 10:47:18;;;;;;;3.35;1.17;;;24.60;95.40;;;;;;5095997;28;20070;-75
2022/08/30 10:49:46;;;;;;;2.38;0.98;;;25.50;97.80;;;;;;5096084;28;20062;-75
2022/08/30 10:52:22;;;;;;;2.17;1.00;;;26.40;95.90;;;;;;5095518;28;20421;-76
2022/08/30 10:54:53;;;;;;;2.25;1.10;;;26.30;96.00;;;;;;5102229;28;20126;-75
2022/08/30 10:57:20;;;;;;;4.47;1.20;;;28.90;96.10;;;;;;5115844;28;20378;-75
2022/08/30 10:59:53;;;;;;;4.47;1.42;;;26.90;94.30;;;;;;5115513;28;20095;-75
2022/08/30 11:02:34;;;;;;;5.50;1.10;;;28.30;96.50;;;;;;5115880;28;20027;-75
2022/08/30 11:05:28;;;;;;;1.95;0.60;;;27.90;95.50;;;;;;5115552;28;20076;-76
2022/08/30 11:08:11;;;;;;;1.60;0.95;;;24.40;94.30;;;;;;5115439;28;20047;-75
2022/08/30 11:11:01;;;;;;;3.42;0.80;;;23.40;95.90;;;;;;5111768;28;20032;-75
2022/08/30 11:13:30;;;;;;;1.05;0.80;;;23.40;96.40;;;;;;5095318;28;20028;-76
2022/08/30 11:16:03;;;;;;;2.78;0.82;;;23.20;97.70;;;;;;5095346;28;20031;-75
2022/08/30 11:18:33;;;;;;;2.65;1.10;;;22.70;98.00;;;;;;5094872;28;20089;-76
2022/08/30 11:21:37;;;;;;;1.95;0.77;;;22.90;99.00;;;;;;5086230;28;20031;-77
2022/08/30 11:24:15;;;;;;;2.08;0.98;;;22.40;99.30;;;;;;5115642;28;20045;-74
2022/08/30 11:26:43;;;;;;;1.05;0.70;;;22.70;99.90;;;;;;5115383;28;20018;-75
2022/08/30 11:29:26;;;;;;;1.48;0.73;;;22.80;99.90;;;;;;5115401;28;20099;-75
2022/08/30 11:31:54;;;;;;;1.20;0.70;;;21.90;99.90;;;;;;5115794;28;20497;-75
2022/08/30 11:34:44;;;;;;;0.90;0.80;;;22.10;99.90;;;;;;5116359;28;20042;-75
2022/08/30 11:37:11;;;;;;;2.22;0.70;;;22.30;99.90;;;;;;5116247;28;20043;-75
2022/08/30 11:39:45;;;;;;;5.05;1.05;;;22.60;99.90;;;;;;5115909;28;20469;-76
2022/08/30 11:42:18;;;;;;;2.47;1.00;;;22.20;99.90;;;;;;5115759;28;20023;-76
2022/08/30 11:44:43;;;;;;;1.05;0.65;;;22.50;99.90;;;;;;5115916;28;20028;-76
2022/08/30 11:47:34;;;;;;;1.20;0.80;;;22.30;99.90;;;;;;5115124;28;20020;-76
2022/08/30 11:50:11;;;;;;;3.50;0.80;;;22.20;99.90;;;;;;5115148;28;20094;-75
2022/08/30 11:52:56;;;;;;;1.88;0.90;;;22.10;99.90;;;;;;5115210;28;20030;-75
2022/08/30 11:55:35;;;;;;;4.97;0.90;;;21.80;99.90;;;;;;5115019;28;20024;-76
2022/08/30 11:58:18;;;;;;;1.85;0.80;;;22.10;99.90;;;;;;5114947;28;20063;-76
2022/08/30 12:00:46;;;;;;;1.05;0.57;;;22.20;99.90;;;;;;5114968;28;20042;-75
2022/08/30 12:03:15;;;;;;;1.10;0.65;;;22.20;99.90;;;;;;5115303;28;20015;-75
2022/08/30 12:05:44;;;;;;;1.52;0.80;;;22.30;99.90;;;;;;5114860;28;20019;-75
2022/08/30 12:08:19;;;;;;;0.95;0.40;;;22.30;99.90;;;;;;5115118;28;20031;-75
2022/08/30 12:11:25;;;;;;;2.15;0.45;;;22.40;99.90;;;;;;5110127;28;20458;-75
2022/08/30 12:13:52;;;;;;;1.60;0.65;;;22.40;99.90;;;;;;5079678;28;20028;-75
2022/08/30 12:16:26;;;;;;;2.38;0.40;;;22.20;99.90;;;;;;5102546;28;20598;-75
2022/08/30 12:19:00;;;;;;;1.75;0.65;;;22.10;99.90;;;;;;5103373;28;20030;-75
2022/08/30 12:21:32;;;;;;;2.83;1.10;;;22.10;99.50;;;;;;5109994;28;20069;-75
2022/08/30 12:24:03;;;;;;;3.90;1.33;;;22.30;99.90;;;;;;5077035;28;20020;-75
2022/08/30 12:26:41;;;;;;;1.67;0.73;;;22.30;99.90;;;;;;5093885;28;20020;-75
2022/08/30 12:29:22;;;;;;;2.03;0.63;;;22.30;99.90;;;;;;5093843;28;20093;-75
2022/08/30 12:31:52;;;;;;;3.03;0.80;;;22.30;99.90;;;;;;5094198;28;20394;-75
2022/08/30 12:34:45;;;;;;;1.30;0.57;;;22.10;99.90;;;;;;5093983;28;20374;-75
2022/08/30 12:37:22;;;;;;;1.73;0.80;;;22.00;99.90;;;;;;5093631;28;20044;-75
2022/08/30 12:39:58;;;;;;;1.45;0.70;;;22.30;99.90;;;;;;5096709;28;20099;-74
2022/08/30 12:42:27;;;;;;;1.25;0.60;;;22.50;99.90;;;;;;5114042;28;20035;-74
2022/08/30 12:44:57;;;;;;;1.75;0.80;;;22.20;99.10;;;;;;5113996;28;20051;-74
2022/08/30 12:47:31;;;;;;;1.75;0.80;;;22.10;99.70;;;;;;5113767;28;20457;-76
2022/08/30 12:49:57;;;;;;;1.45;0.90;;;22.60;99.20;;;;;;5113764;28;20031;-75
2022/08/30 12:52:28;;;;;;;3.03;0.50;;;22.50;99.40;;;;;;5113757;28;20108;-75
2022/08/30 12:55:03;;;;;;;1.55;0.85;;;22.30;99.30;;;;;;5113668;28;20019;-75
2022/08/30 12:57:37;;;;;;;0.65;0.63;;;22.40;99.90;;;;;;5113540;28;20028;-75
2022/08/30 13:00:06;;;;;;;0.77;0.50;;;22.50;99.90;;;;;;5113286;28;20022;-76
2022/08/30 13:02:50;;;;;;;3.03;0.75;;;22.60;99.90;;;;;;5113400;28;20012;-74
2022/08/30 13:05:49;;;;;;;0.75;0.50;;;22.50;99.90;;;;;;5113354;28;20672;-75
2022/08/30 13:08:35;;;;;;;1.45;0.60;;;22.20;99.90;;;;;;5092869;28;20027;-75
2022/08/30 13:11:04;;;;;;;2.35;0.70;;;22.50;99.90;;;;;;5100027;28;20012;-76
2022/08/30 13:13:45;;;;;;;1.63;0.70;;;22.10;99.90;;;;;;5114826;28;20426;-76
2022/08/30 13:16:20;;;;;;;1.38;0.80;;;21.90;99.90;;;;;;5113254;28;20050;-75